createdAt,value
2023-04-25T00:00:08.801Z,94104
2023-04-25T00:03:34.264Z,94110
2023-04-25T00:06:59.225Z,94116
2023-04-25T00:10:24.472Z,94119
2023-04-25T00:13:49.807Z,94116
2023-04-25T00:17:14.869Z,94111
2023-04-25T00:20:40.099Z,94109
2023-04-25T00:24:05.299Z,94106
2023-04-25T00:27:30.570Z,94108
2023-04-25T00:30:56.065Z,94108
2023-04-25T00:34:21.254Z,94114
2023-04-25T00:37:46.442Z,94110
2023-04-25T00:41:11.635Z,94105
2023-04-25T00:44:36.851Z,94107
2023-04-25T00:48:02.120Z,94115
2023-04-25T00:51:27.263Z,94115
2023-04-25T00:54:52.481Z,94105
2023-04-25T00:58:17.705Z,94107
2023-04-25T01:01:42.912Z,94102
2023-04-25T01:05:08.165Z,94099
2023-04-25T01:08:33.365Z,94093
2023-04-25T01:11:58.606Z,94095
2023-04-25T01:15:23.814Z,94104
2023-04-25T01:18:49.046Z,94095
2023-04-25T01:22:14.254Z,94094
2023-04-25T01:25:39.443Z,94091
2023-04-25T01:29:04.657Z,94090
2023-04-25T01:32:29.905Z,94091
2023-04-25T01:35:55.106Z,94093
2023-04-25T01:39:20.348Z,94089
2023-04-25T01:42:45.571Z,94081
2023-04-25T01:46:10.804Z,94084
2023-04-25T01:49:35.988Z,94074
2023-04-25T01:53:01.199Z,94074
2023-04-25T01:56:26.424Z,94081
2023-04-25T01:59:51.615Z,94078
2023-04-25T02:03:16.889Z,94078
2023-04-25T02:06:42.085Z,94073
2023-04-25T02:10:07.279Z,94076
2023-04-25T02:13:32.512Z,94078
2023-04-25T02:16:57.883Z,94075
2023-04-25T02:20:22.914Z,94071
2023-04-25T02:23:48.303Z,94075
2023-04-25T02:27:13.412Z,94065
2023-04-25T02:30:38.739Z,94074
2023-04-25T02:34:03.936Z,94072
2023-04-25T02:37:29.151Z,94071
2023-04-25T02:40:54.345Z,94066
2023-04-25T02:44:19.573Z,94061
2023-04-25T02:47:44.872Z,94058
2023-04-25T02:51:09.989Z,94059
2023-04-25T02:54:35.192Z,94059
2023-04-25T02:58:00.401Z,94056
2023-04-25T03:01:25.692Z,94051
2023-04-25T03:04:50.884Z,94049
2023-04-25T03:08:16.052Z,94042
2023-04-25T03:11:41.254Z,94037
2023-04-25T03:15:06.467Z,94039
2023-04-25T03:18:31.677Z,94035
2023-04-25T03:21:56.957Z,94032
2023-04-25T03:25:22.134Z,94033
2023-04-25T03:28:47.321Z,94030
2023-04-25T03:32:12.592Z,94033
2023-04-25T03:35:37.718Z,94030
2023-04-25T03:39:03.345Z,94031
2023-04-25T03:42:28.578Z,94039
2023-04-25T03:45:53.873Z,94040
2023-04-25T03:49:19.633Z,94036
2023-04-25T03:52:44.318Z,94036
2023-04-25T03:56:09.608Z,94036
2023-04-25T03:59:34.841Z,94037
2023-04-25T04:03:00.232Z,94039
2023-04-25T04:06:25.265Z,94051
2023-04-25T04:09:50.508Z,94049
2023-04-25T04:13:15.770Z,94040
2023-04-25T04:16:40.970Z,94057
2023-04-25T04:20:06.202Z,94055
2023-04-25T04:23:31.450Z,94061
2023-04-25T04:26:56.672Z,94060
2023-04-25T04:30:21.939Z,94062
2023-04-25T04:33:47.128Z,94064
2023-04-25T04:37:12.395Z,94063
2023-04-25T04:40:37.634Z,94067
2023-04-25T04:44:02.862Z,94068
2023-04-25T04:47:28.125Z,94063
2023-04-25T04:50:53.300Z,94067
2023-04-25T04:54:18.532Z,94064
2023-04-25T04:57:43.781Z,94065
2023-04-25T05:01:09.004Z,94062
2023-04-25T05:04:34.389Z,94062
2023-04-25T05:07:59.456Z,94063
2023-04-25T05:11:24.726Z,94067
2023-04-25T05:14:49.937Z,94072
2023-04-25T05:18:15.191Z,94069
2023-04-25T05:21:41.795Z,94076
2023-04-25T05:25:06.967Z,94074
2023-04-25T05:28:32.215Z,94078
2023-04-25T05:31:57.488Z,94082
2023-04-25T05:35:22.688Z,94082
2023-04-25T05:38:47.899Z,94085
2023-04-25T05:42:13.104Z,94085
2023-04-25T05:45:38.344Z,94087
2023-04-25T05:49:03.570Z,94094
2023-04-25T05:52:28.810Z,94093
2023-04-25T05:55:54.126Z,94094
2023-04-25T05:59:19.246Z,94099
2023-04-25T06:02:44.660Z,94094
2023-04-25T06:06:09.731Z,94099
2023-04-25T06:09:34.972Z,94103
2023-04-25T06:13:00.247Z,94107
2023-04-25T06:16:25.546Z,94108
2023-04-25T06:19:50.658Z,94114
2023-04-25T06:23:15.885Z,94113
2023-04-25T06:26:41.158Z,94112
2023-04-25T06:30:06.474Z,94113
2023-04-25T06:33:31.661Z,94114
2023-04-25T06:36:56.928Z,94117
2023-04-25T06:40:22.146Z,94115
2023-04-25T06:43:47.355Z,94115
2023-04-25T06:47:12.746Z,94117
2023-04-25T06:50:37.850Z,94118
2023-04-25T06:54:03.062Z,94116
2023-04-25T06:57:28.272Z,94118
2023-04-25T07:00:53.660Z,94115
2023-04-25T07:04:18.901Z,94116
2023-04-25T07:07:44.012Z,94117
2023-04-25T07:11:09.251Z,94124
2023-04-25T07:14:34.501Z,94127
2023-04-25T07:17:59.723Z,94132
2023-04-25T07:21:24.963Z,94135
2023-04-25T07:24:50.505Z,94140
2023-04-25T07:28:16.540Z,94143
2023-04-25T07:31:40.946Z,94136
2023-04-25T07:35:06.158Z,94135
2023-04-25T07:38:31.409Z,94134
2023-04-25T07:41:56.613Z,94132
2023-04-25T07:45:21.885Z,94140
2023-04-25T07:48:47.110Z,94145
2023-04-25T07:52:12.336Z,94141
2023-04-25T07:55:37.590Z,94150
2023-04-25T07:59:02.794Z,94151
2023-04-25T08:02:28.023Z,94154
2023-04-25T08:05:53.439Z,94155
2023-04-25T08:09:18.479Z,94156
2023-04-25T08:12:43.686Z,94162
2023-04-25T08:16:08.944Z,94164
2023-04-25T08:19:34.104Z,94174
2023-04-25T08:22:59.309Z,94176
2023-04-25T08:26:24.547Z,94175
2023-04-25T08:29:49.793Z,94178
2023-04-25T08:33:15.097Z,94183
2023-04-25T08:36:40.460Z,94194
2023-04-25T08:40:05.458Z,94199
2023-04-25T08:43:30.713Z,94203
2023-04-25T08:46:56.039Z,94210
2023-04-25T08:50:21.210Z,94217
2023-04-25T08:53:46.415Z,94215
2023-04-25T08:57:11.650Z,94221
2023-04-25T09:00:36.859Z,94224
2023-04-25T09:04:02.202Z,94231
2023-04-25T09:07:27.559Z,94236
2023-04-25T09:10:52.561Z,94245
2023-04-25T09:14:17.831Z,94248
2023-04-25T09:17:43.084Z,94241
2023-04-25T09:21:13.553Z,94249
2023-04-25T09:24:33.511Z,94252
2023-04-25T09:27:58.752Z,94261
2023-04-25T09:31:24.061Z,94268
2023-04-25T09:34:49.274Z,94280
2023-04-25T09:38:14.523Z,94282
2023-04-25T09:41:39.710Z,94280
2023-04-25T09:45:04.904Z,94287
2023-04-25T09:48:30.155Z,94292
2023-04-25T09:51:55.391Z,94285
2023-04-25T09:55:20.875Z,94288
2023-04-25T09:58:45.814Z,94283
2023-04-25T10:02:11.095Z,94287
2023-04-25T10:05:36.277Z,94283
2023-04-25T10:09:01.488Z,94281
2023-04-25T10:12:26.811Z,94281
2023-04-25T10:15:51.961Z,94284
2023-04-25T10:19:17.200Z,94288
2023-04-25T10:22:42.393Z,94295
2023-04-25T10:26:07.601Z,94297
2023-04-25T10:29:32.967Z,94302
2023-04-25T10:32:58.110Z,94301
2023-04-25T10:36:23.303Z,94301
2023-04-25T10:39:49.125Z,94307
2023-04-25T10:43:15.113Z,94313
2023-04-25T10:46:39.784Z,94314
2023-04-25T10:50:04.936Z,94308
2023-04-25T10:53:30.164Z,94309
2023-04-25T10:56:55.400Z,94317
2023-04-25T11:00:20.643Z,94307
2023-04-25T11:03:46.022Z,94306
2023-04-25T11:07:11.127Z,94313
2023-04-25T11:10:36.398Z,94313
2023-04-25T11:14:01.611Z,94316
2023-04-25T11:17:26.917Z,94318
2023-04-25T11:20:52.108Z,94322
2023-04-25T11:24:17.320Z,94317
2023-04-25T11:27:42.524Z,94316
2023-04-25T11:31:07.740Z,94323
2023-04-25T11:34:32.977Z,94321
2023-04-25T11:37:58.246Z,94327
2023-04-25T11:41:23.569Z,94333
2023-04-25T11:44:48.928Z,94333
2023-04-25T11:48:14.159Z,94331
2023-04-25T11:51:39.359Z,94337
2023-04-25T11:55:04.630Z,94345
2023-04-25T11:58:29.796Z,94358
2023-04-25T12:01:55.022Z,94371
2023-04-25T12:08:45.463Z,94364
2023-04-25T12:12:10.712Z,94364
2023-04-25T12:15:35.913Z,94369
2023-04-25T12:19:01.132Z,94377
2023-04-25T12:22:26.398Z,94374
2023-04-25T12:25:51.672Z,94373
2023-04-25T12:29:16.936Z,94372
2023-04-25T12:32:42.197Z,94373
2023-04-25T12:36:07.351Z,94366
2023-04-25T12:39:32.579Z,94362
2023-04-25T12:42:57.806Z,94368
2023-04-25T12:46:23.309Z,94373
2023-04-25T12:49:48.489Z,94367
2023-04-25T12:53:13.705Z,94376
2023-04-25T12:56:38.913Z,94378
2023-04-25T13:00:04.133Z,94381
2023-04-25T13:03:29.724Z,94370
2023-04-25T13:06:54.767Z,94368
2023-04-25T13:10:20.065Z,94372
2023-04-25T13:13:45.362Z,94372
2023-04-25T13:17:10.653Z,94363
2023-04-25T13:20:36.029Z,94366
2023-04-25T13:24:01.266Z,94374
2023-04-25T13:27:26.584Z,94381
2023-04-25T13:30:51.952Z,94386
2023-04-25T13:34:17.308Z,94396
2023-04-25T13:37:42.719Z,94409
2023-04-25T13:41:07.980Z,94408
2023-04-25T13:44:33.280Z,94410
2023-04-25T13:47:58.599Z,94416
2023-04-25T13:51:23.951Z,94410
2023-04-25T13:54:49.251Z,94417
2023-04-25T13:58:14.530Z,94424
2023-04-25T14:01:39.875Z,94423
2023-04-25T14:05:05.245Z,94424
2023-04-25T14:08:30.498Z,94428
2023-04-25T14:11:55.845Z,94431
2023-04-25T14:15:21.210Z,94429
2023-04-25T14:18:46.492Z,94432
2023-04-25T14:22:11.901Z,94438
2023-04-25T14:25:37.252Z,94437
2023-04-25T14:29:02.687Z,94448
2023-04-25T14:32:27.970Z,94453
2023-04-25T14:35:53.265Z,94452
2023-04-25T14:39:18.574Z,94464
2023-04-25T14:42:43.928Z,94472
2023-04-25T14:46:09.490Z,94472
2023-04-25T14:49:34.812Z,94473
2023-04-25T14:53:00.205Z,94477
2023-04-25T14:56:25.482Z,94481
2023-04-25T14:59:50.775Z,94478
2023-04-25T15:03:16.211Z,94482
2023-04-25T15:40:31.867Z,94496
2023-04-25T15:43:57.148Z,94501
2023-04-25T15:47:22.584Z,94508
2023-04-25T15:50:47.798Z,94504
2023-04-25T15:54:13.097Z,94508
2023-04-25T15:57:38.492Z,94511
2023-04-25T16:01:03.830Z,94516
2023-04-25T16:04:29.092Z,94516
2023-04-25T16:07:54.331Z,94515
2023-04-25T16:11:19.643Z,94514
2023-04-25T16:14:44.944Z,94514
2023-04-25T16:18:11.529Z,94519
2023-04-25T16:21:36.814Z,94519
2023-04-25T16:25:02.156Z,94518
2023-04-25T16:28:27.429Z,94523
2023-04-25T16:31:52.897Z,94522
2023-04-25T16:35:18.013Z,94521
2023-04-25T16:38:43.298Z,94517
2023-04-25T16:42:08.622Z,94525
2023-04-25T16:45:33.914Z,94526
2023-04-25T16:48:59.238Z,94526
2023-04-25T16:52:24.509Z,94527
2023-04-25T16:55:49.870Z,94527
2023-04-25T16:59:15.132Z,94528
2023-04-25T17:02:40.511Z,94535
2023-04-25T17:06:06.082Z,94540
2023-04-25T17:09:31.837Z,94546
2023-04-25T17:12:57.280Z,94544
2023-04-25T17:16:23.042Z,94547
2023-04-25T17:19:48.462Z,94545
2023-04-25T17:23:13.837Z,94547
2023-04-25T17:26:39.213Z,94556
2023-04-25T17:30:04.437Z,94556
2023-04-25T17:33:29.744Z,94553
2023-04-25T17:36:55.063Z,94559
2023-04-25T17:40:20.467Z,94564
2023-04-25T17:43:45.775Z,94572
2023-04-25T17:47:11.089Z,94568
2023-04-25T17:50:36.439Z,94576
2023-04-25T17:54:01.749Z,94575
2023-04-25T17:57:27.233Z,94573
2023-04-25T18:00:52.406Z,94577
2023-04-25T18:04:17.773Z,94586
2023-04-25T18:07:43.096Z,94588
2023-04-25T18:11:08.447Z,94582
2023-04-25T18:14:33.867Z,94588
2023-04-25T18:17:59.251Z,94594
2023-04-25T18:21:24.514Z,94597
2023-04-25T18:24:49.880Z,94605
2023-04-25T18:28:15.167Z,94607
2023-04-25T18:31:40.553Z,94614
2023-04-25T18:35:05.816Z,94613
2023-04-25T18:38:35.784Z,94618
2023-04-25T18:41:59.991Z,94621
2023-04-25T18:45:21.734Z,94630
2023-04-25T18:48:47.119Z,94632
2023-04-25T18:52:12.439Z,94641
2023-04-25T18:55:37.754Z,94643
2023-04-25T18:59:03.076Z,94646
2023-04-25T19:02:28.410Z,94647
2023-04-25T19:05:53.651Z,94653
2023-04-25T19:09:18.965Z,94664
2023-04-25T19:12:44.276Z,94672
2023-04-25T19:16:09.662Z,94673
2023-04-25T19:19:34.909Z,94679
2023-04-25T19:23:00.240Z,94684
2023-04-25T19:26:25.561Z,94689
2023-04-25T19:29:50.842Z,94693
2023-04-25T19:33:16.100Z,94695
2023-04-25T19:36:41.506Z,94693
2023-04-25T19:40:06.712Z,94693
2023-04-25T19:43:31.998Z,94695
2023-04-25T19:46:57.303Z,94697
2023-04-25T19:50:22.554Z,94696
2023-04-25T19:53:47.821Z,94700
2023-04-25T19:57:13.072Z,94702
2023-04-25T20:00:38.251Z,94701
2023-04-25T20:04:03.470Z,94702
2023-04-25T20:07:28.749Z,94700
2023-04-25T20:10:54.020Z,94699
2023-04-25T20:14:19.236Z,94704
2023-04-25T20:17:44.441Z,94709
2023-04-25T20:21:09.666Z,94709
2023-04-25T20:24:34.901Z,94703
2023-04-25T20:28:00.152Z,94703
2023-04-25T20:31:25.468Z,94702
2023-04-25T20:34:50.634Z,94699
2023-04-25T20:38:15.891Z,94700
2023-04-25T20:41:41.081Z,94704
2023-04-25T20:45:06.344Z,94703
2023-04-25T20:48:31.572Z,94710
2023-04-25T20:51:56.775Z,94708
2023-04-25T20:55:21.998Z,94710
2023-04-25T20:58:47.240Z,94702
2023-04-25T21:02:12.544Z,94710
2023-04-25T21:05:37.699Z,94716
2023-04-25T21:09:02.894Z,94714
2023-04-25T21:12:28.142Z,94717
2023-04-25T21:15:53.350Z,94718
2023-04-25T21:19:18.591Z,94713
2023-04-25T21:22:43.855Z,94722
2023-04-25T21:26:09.052Z,94728
2023-04-25T21:29:34.290Z,94727
2023-04-25T21:32:59.548Z,94731
2023-04-25T21:36:24.815Z,94728
2023-04-25T21:39:50.157Z,94724
2023-04-25T21:43:15.261Z,94728
2023-04-25T21:46:40.536Z,94735
2023-04-25T21:50:05.734Z,94725
2023-04-25T21:53:30.945Z,94730
2023-04-25T21:56:56.178Z,94737
2023-04-25T22:00:21.370Z,94738
2023-04-25T22:03:46.671Z,94737
2023-04-25T22:07:11.809Z,94740
2023-04-25T22:10:37.045Z,94736
2023-04-25T22:14:02.228Z,94745
2023-04-25T22:17:27.482Z,94751
2023-04-25T22:20:52.689Z,94751
2023-04-25T22:24:18.166Z,94760
2023-04-25T22:27:43.389Z,94760
2023-04-25T22:31:08.694Z,94763
2023-04-25T22:34:33.829Z,94770
2023-04-25T22:37:59.055Z,94766
2023-04-25T22:41:24.319Z,94769
2023-04-25T22:44:49.543Z,94773
2023-04-25T22:48:14.758Z,94769
2023-04-25T22:51:39.984Z,94772
2023-04-25T22:55:05.236Z,94780
2023-04-25T22:58:30.457Z,94780
2023-04-25T23:01:55.735Z,94781
2023-04-25T23:05:20.970Z,94781
2023-04-25T23:08:46.190Z,94779
2023-04-25T23:12:11.405Z,94785
2023-04-25T23:15:36.677Z,94783
2023-04-25T23:19:01.927Z,94784
2023-04-25T23:22:27.161Z,94780
2023-04-25T23:25:52.407Z,94779
2023-04-25T23:29:17.622Z,94785
2023-04-25T23:32:42.846Z,94785
2023-04-25T23:36:08.043Z,94786
2023-04-25T23:39:33.278Z,94788
2023-04-25T23:42:58.480Z,94785
2023-04-25T23:46:23.717Z,94788
2023-04-25T23:49:48.895Z,94792
2023-04-25T23:53:14.097Z,94795
2023-04-25T23:56:39.337Z,94797
